OTBH

Al Udeid Air Base Airport

Ar Rayyan, Qatar
TAF OTBH 212300Z 2123/2305 32009KT 9000 HZ FEW240 QNH3005INS BECMG 2205/2206 31010G15KT 9000 HZ SKC QNH3007INS BECMG 2213/2214 30009KT 9000 HZ SKC QNH3009INS TX21/2211Z TN10/2202Z
Issued Valid From Valid To
Jan-21 @ 23:00 UTC
(an hour ago)
Jan-21 @ 23:00 UTC
(an hour ago)
Jan-23 @ 05:00 UTC
(-1 days ago)
Jan-21 @ 23:00 to Jan-22 @ 05:00
TAF OTBH 212300Z 2123/2305 32009KT 9000 HZ FEW240 QNH3005INS
Wind Visibility Clouds Conditions Readings
320° at 9 knots 8,996 meters
  • Few at 24,000' AGL
  • Haze
Altimeter 30.06" Hg
Pressure 1017.92 hPa
Becoming Jan-22 @ 05:00 to Jan-22 @ 13:00
BECMG 2205/2206 31010G15KT 9000 HZ SKC QNH3007INS
Wind Visibility Clouds Conditions Readings
310° at 10 knots
 Gusting to 15 knots
8,996 meters
  • Clear skies
  • Haze
Altimeter 30.06" Hg
Pressure 1017.92 hPa
Becoming Jan-22 @ 13:00 to Jan-23 @ 05:00
BECMG 2213/2214 30009KT 9000 HZ SKC QNH3009INS TX21/2211Z TN10/2202Z
Wind Visibility Clouds Conditions Readings
300° at 9 knots 8,996 meters
  • Clear skies
  • Haze
Altimeter 30.09" Hg
Pressure 1018.92 hPa
TAF OTBH 212300Z 2123/2305 32009KT 9000 HZ FEW240 QNH3005INS BECMG 2205/2206 31010G15KT 9000 HZ SKC QNH3007INS BECMG 2213/2214 30009KT 9000 HZ SKC QNH3009INS TX21/2211Z TN10/2202Z
Issued Jan-21 @ 23:00 UTC
(an hour ago)
Valid From Jan-21 @ 23:00 UTC
(an hour ago)
Valid To Jan-23 @ 05:00 UTC
(-1 days ago)
Jan-21 @ 23:00 - Jan-22 @ 05:00
Wind Visibility
320° at 9 knots 8,996 meters
Clouds
  • Few at 24,000' AGL
Conditions
  • Haze
Becoming Jan-22 @ 05:00 - Jan-22 @ 13:00
Wind Visibility
310° at 10 knots
 Gusting to 15 knots
8,996 meters
Clouds
  • Clear skies
Conditions
  • Haze
Becoming Jan-22 @ 13:00 - Jan-23 @ 05:00
Wind Visibility
300° at 9 knots 8,996 meters
Clouds
  • Clear skies
Conditions
  • Haze